Time;durP1;ratioP1;P1;durP2;ratioP2;P2;SDS_P1;SDS_P2;PMS_P1;PMS_P2;Temp;Humidity;BMP_temperature;BMP_pressure;BME280_temperature;BME280_humidity;BME280_pressure;Samples;Min_cycle;Max_cycle;Signal;HPM_P1;HPM_P2
2021/10/03 00:03:12;;;;;;;6.40;5.90;;;17.60;99.90;;;;;;10199980;29;20217;-84
2021/10/03 00:08:15;;;;;;;6.40;5.90;;;17.60;99.90;;;;;;10197684;29;20204;-84
2021/10/03 00:13:18;;;;;;;6.03;5.53;;;17.50;99.90;;;;;;10230101;29;20232;-84
2021/10/03 00:18:23;;;;;;;7.07;6.37;;;17.50;99.90;;;;;;10196714;29;20208;-84
2021/10/03 00:23:27;;;;;;;6.10;5.60;;;17.40;99.90;;;;;;10206895;29;20312;-84
2021/10/03 00:28:29;;;;;;;5.87;5.47;;;17.30;99.90;;;;;;10192961;29;20693;-84
2021/10/03 00:33:34;;;;;;;5.23;4.83;;;17.30;99.90;;;;;;10192316;29;20221;-84
2021/10/03 00:38:36;;;;;;;5.93;5.43;;;17.20;99.90;;;;;;10177052;29;20216;-84
2021/10/03 00:43:39;;;;;;;5.50;5.10;;;17.20;99.90;;;;;;10176762;29;20245;-84
2021/10/03 00:48:42;;;;;;;4.93;4.53;;;17.20;99.90;;;;;;10161395;29;20690;-84
2021/10/03 00:53:44;;;;;;;5.30;4.93;;;17.20;99.90;;;;;;10143791;29;20258;-84
2021/10/03 00:58:47;;;;;;;5.50;5.10;;;17.10;99.90;;;;;;10142982;29;20733;-84
2021/10/03 01:03:50;;;;;;;5.30;4.93;;;17.10;99.90;;;;;;10155694;29;20233;-83
2021/10/03 01:08:52;;;;;;;5.60;5.20;;;17.10;99.90;;;;;;10160407;29;20206;-83
2021/10/03 01:13:55;;;;;;;5.37;4.90;;;17.20;99.90;;;;;;10201049;29;20651;-84
2021/10/03 01:18:58;;;;;;;5.63;5.20;;;17.20;99.90;;;;;;10221178;29;20217;-84
2021/10/03 01:24:02;;;;;;;5.23;4.73;;;17.30;99.90;;;;;;10182733;29;20319;-85
2021/10/03 01:29:04;;;;;;;6.13;5.63;;;17.30;99.90;;;;;;10199004;29;20205;-84
2021/10/03 01:34:06;;;;;;;5.33;4.97;;;17.40;99.90;;;;;;10181694;29;20237;-84
2021/10/03 01:39:10;;;;;;;5.67;5.17;;;17.40;99.90;;;;;;10182476;29;20210;-84
2021/10/03 01:44:13;;;;;;;6.00;5.50;;;17.50;99.90;;;;;;10182021;29;20225;-84
2021/10/03 01:49:15;;;;;;;6.43;5.80;;;17.50;99.90;;;;;;10178096;29;20587;-83
2021/10/03 01:54:19;;;;;;;6.53;6.03;;;17.50;99.90;;;;;;10175627;29;20234;-84
2021/10/03 01:59:22;;;;;;;5.37;4.97;;;17.50;99.90;;;;;;10142370;29;20589;-84
2021/10/03 02:04:25;;;;;;;6.03;5.53;;;17.40;99.90;;;;;;10157572;29;20214;-84
2021/10/03 02:09:29;;;;;;;5.20;4.80;;;17.40;99.90;;;;;;10158830;29;20202;-84
2021/10/03 02:14:34;;;;;;;5.13;4.83;;;17.40;99.90;;;;;;10175359;29;20270;-84
2021/10/03 02:19:41;;;;;;;5.50;5.10;;;17.40;99.90;;;;;;10180709;29;20220;-84
2021/10/03 02:24:44;;;;;;;5.20;4.80;;;17.50;99.90;;;;;;10181390;29;20702;-84
2021/10/03 02:29:47;;;;;;;6.77;6.10;;;17.50;99.90;;;;;;10182504;29;20258;-84
2021/10/03 02:34:49;;;;;;;6.43;6.03;;;17.40;99.90;;;;;;10181490;29;20658;-84
2021/10/03 02:39:53;;;;;;;6.20;5.70;;;17.40;99.90;;;;;;10197807;29;20216;-84
2021/10/03 02:44:55;;;;;;;6.50;6.00;;;17.40;99.90;;;;;;10181526;29;20217;-84
2021/10/03 02:49:57;;;;;;;6.00;5.57;;;17.40;99.90;;;;;;10197557;29;20678;-85
2021/10/03 04:33:17;;;;;;;6.23;5.73;;;17.00;99.90;;;;;;11480497;23;20744;-84
2021/10/03 04:38:19;;;;;;;5.20;4.80;;;17.00;99.90;;;;;;10281393;28;20275;-84
2021/10/03 04:43:21;;;;;;;4.30;4.00;;;17.00;99.90;;;;;;10281440;28;20222;-85
2021/10/03 04:48:25;;;;;;;4.50;4.20;;;17.10;99.90;;;;;;10268914;28;20800;-85
2021/10/03 04:53:27;;;;;;;4.70;4.40;;;17.10;99.90;;;;;;10285440;28;20238;-85
2021/10/03 04:58:29;;;;;;;4.37;3.97;;;17.10;99.90;;;;;;10269439;28;20665;-84
2021/10/03 05:03:35;;;;;;;4.93;4.63;;;17.20;99.90;;;;;;10279934;28;20597;-84
2021/10/03 05:08:37;;;;;;;4.80;4.20;;;17.20;99.90;;;;;;10280450;28;20200;-85
2021/10/03 05:13:39;;;;;;;3.60;3.40;;;17.30;99.90;;;;;;10279666;28;20234;-84
2021/10/03 05:18:43;;;;;;;4.17;3.77;;;17.30;99.90;;;;;;10255976;28;20208;-84
2021/10/03 06:42:13;;;;;;;4.60;4.30;;;17.90;99.90;;;;;;5458964;24;20692;-84
2021/10/03 06:47:16;;;;;;;3.50;3.30;;;18.00;99.90;;;;;;9888379;29;20234;-84
2021/10/03 06:52:18;;;;;;;4.50;4.10;;;18.10;99.90;;;;;;9892833;30;20325;-84
2021/10/03 06:57:31;;;;;;;4.77;4.37;;;18.30;99.90;;;;;;9893684;30;20301;-84
2021/10/03 07:02:34;;;;;;;5.17;4.43;;;18.40;99.90;;;;;;9891298;29;20207;-84
2021/10/03 07:07:36;;;;;;;3.83;3.57;;;18.50;99.90;;;;;;9908111;30;20668;-84
2021/10/03 07:12:41;;;;;;;4.10;3.90;;;18.60;99.90;;;;;;9891789;29;20249;-84
2021/10/03 07:17:43;;;;;;;4.07;3.77;;;18.70;99.90;;;;;;9890541;30;20199;-84
2021/10/03 07:22:45;;;;;;;4.20;3.90;;;18.80;99.90;;;;;;9854719;30;20308;-84
2021/10/03 07:27:48;;;;;;;3.40;3.20;;;18.80;99.90;;;;;;9855095;30;20486;-84
2021/10/03 07:32:51;;;;;;;3.37;3.17;;;18.80;99.90;;;;;;9868693;30;20235;-84
2021/10/03 07:37:53;;;;;;;3.93;3.73;;;18.80;99.90;;;;;;9882994;30;20684;-84
2021/10/03 07:42:56;;;;;;;3.80;3.60;;;18.90;99.90;;;;;;9891195;29;20234;-84
2021/10/03 07:47:58;;;;;;;5.10;3.63;;;19.00;99.90;;;;;;9877249;30;20688;-85
2021/10/03 08:03:37;;;;;;;11.30;5.40;;;19.30;99.90;;;;;;10429013;24;20299;-85
2021/10/03 08:08:39;;;;;;;5.07;4.53;;;19.40;99.90;;;;;;9889799;30;20221;-84
2021/10/03 08:13:41;;;;;;;4.23;3.80;;;19.40;99.90;;;;;;9870856;29;20234;-85
2021/10/03 08:18:45;;;;;;;4.83;4.43;;;19.50;99.90;;;;;;9861848;30;20215;-84
2021/10/03 08:23:47;;;;;;;4.87;4.47;;;19.50;99.90;;;;;;9874957;29;20223;-85
2021/10/03 08:28:49;;;;;;;4.40;4.10;;;19.50;99.90;;;;;;9889242;30;20211;-84
2021/10/03 08:33:53;;;;;;;5.07;4.67;;;19.70;99.90;;;;;;9874486;29;20235;-84
2021/10/03 08:38:55;;;;;;;4.80;4.40;;;19.70;99.90;;;;;;9861627;30;20203;-85
2021/10/03 08:43:57;;;;;;;5.77;5.03;;;19.80;99.90;;;;;;9868200;30;20223;-84
2021/10/03 08:49:04;;;;;;;5.97;5.47;;;19.70;99.90;;;;;;9883746;30;20271;-84
2021/10/03 09:00:50;;;;;;;5.60;5.10;;;19.90;99.90;;;;;;9887845;30;20202;-85
2021/10/03 09:05:58;;;;;;;5.43;4.30;;;19.90;99.90;;;;;;9870653;30;20270;-84
2021/10/03 09:11:05;;;;;;;4.83;4.43;;;19.90;99.90;;;;;;9852300;30;20735;-84
2021/10/03 09:16:18;;;;;;;4.40;4.10;;;19.90;99.90;;;;;;9861732;30;20292;-84
2021/10/03 09:21:39;;;;;;;4.00;3.70;;;19.80;99.90;;;;;;9864714;30;20294;-85
2021/10/03 09:26:54;;;;;;;3.80;3.50;;;19.80;99.90;;;;;;9866833;30;20288;-84
2021/10/03 09:32:13;;;;;;;4.07;3.87;;;19.80;99.90;;;;;;9877924;30;20248;-85
2021/10/03 09:37:24;;;;;;;4.27;4.00;;;19.80;99.90;;;;;;9862472;30;20229;-85
2021/10/03 09:42:26;;;;;;;4.60;4.20;;;19.80;99.90;;;;;;9860860;29;20295;-82
2021/10/03 09:47:28;;;;;;;4.37;4.07;;;19.90;99.90;;;;;;9879764;30;20214;-83
2021/10/03 09:52:39;;;;;;;4.80;4.40;;;19.90;99.90;;;;;;9861823;29;20318;-84
2021/10/03 09:57:46;;;;;;;6.73;6.13;;;19.90;99.90;;;;;;9862049;30;20707;-84
2021/10/03 10:02:48;;;;;;;6.10;5.60;;;19.90;99.90;;;;;;9875073;30;20472;-84
2021/10/03 10:07:53;;;;;;;4.43;4.07;;;19.80;99.90;;;;;;9859687;30;20203;-84
2021/10/03 10:34:08;;;;;;;4.10;3.80;;;20.10;99.90;;;;;;10689066;24;20237;-84
2021/10/03 10:39:28;;;;;;;3.90;3.60;;;20.20;99.90;;;;;;9881960;30;20203;-82
2021/10/03 10:44:33;;;;;;;4.00;3.70;;;20.40;99.90;;;;;;9897351;29;20227;-85
2021/10/03 10:49:42;;;;;;;3.87;3.67;;;20.40;99.90;;;;;;9895945;30;20206;-85
2021/10/03 10:55:27;;;;;;;4.07;3.77;;;20.50;99.90;;;;;;9858610;30;21066;-85
2021/10/03 11:00:30;;;;;;;4.70;4.40;;;20.60;99.90;;;;;;9872521;30;20214;-84
2021/10/03 11:05:47;;;;;;;4.03;3.73;;;20.50;99.90;;;;;;9894244;30;20313;-84
2021/10/03 11:11:17;;;;;;;4.20;4.00;;;20.50;99.90;;;;;;9891269;30;20639;-84
2021/10/03 11:16:23;;;;;;;3.70;3.40;;;20.60;99.90;;;;;;9909964;30;20231;-85
2021/10/03 11:21:30;;;;;;;4.03;3.73;;;20.60;99.90;;;;;;9879158;30;20587;-84
2021/10/03 11:26:45;;;;;;;3.93;3.63;;;20.60;99.90;;;;;;9911987;24;20304;-84
2021/10/03 11:31:50;;;;;;;3.70;3.50;;;20.60;99.90;;;;;;9902680;30;20698;-84
2021/10/03 11:36:53;;;;;;;3.90;3.53;;;20.60;99.90;;;;;;9875624;30;20769;-83
2021/10/03 11:41:55;;;;;;;3.93;3.63;;;20.60;99.90;;;;;;9855130;30;20660;-83
2021/10/03 11:47:00;;;;;;;4.67;4.30;;;20.60;99.90;;;;;;9887328;30;20258;-83
2021/10/03 11:52:04;;;;;;;3.57;3.37;;;20.60;99.90;;;;;;9877497;30;20207;-84
2021/10/03 11:57:18;;;;;;;4.10;3.70;;;20.60;99.90;;;;;;9905337;29;20230;-84
2021/10/03 12:02:23;;;;;;;4.60;4.10;;;20.60;99.90;;;;;;9909467;30;20586;-84
2021/10/03 12:07:27;;;;;;;3.60;3.40;;;20.60;99.90;;;;;;9909349;30;20226;-85
2021/10/03 12:13:10;;;;;;;8.83;7.73;;;20.60;99.90;;;;;;9876429;29;20229;-84
2021/10/03 12:18:14;;;;;;;4.60;4.17;;;20.60;99.90;;;;;;9897767;30;20225;-85
2021/10/03 12:23:25;;;;;;;4.30;3.93;;;20.70;99.90;;;;;;9893883;29;20369;-85
2021/10/03 12:28:29;;;;;;;3.63;3.43;;;20.80;99.90;;;;;;9911414;30;20293;-85
2021/10/03 12:33:37;;;;;;;3.87;3.57;;;20.80;99.90;;;;;;9880590;30;20266;-84
2021/10/03 12:38:41;;;;;;;4.43;4.13;;;20.80;99.90;;;;;;9881368;30;20216;-83
2021/10/03 12:43:48;;;;;;;4.20;3.90;;;20.80;99.90;;;;;;9844028;30;20239;-84
2021/10/03 12:48:51;;;;;;;3.70;3.50;;;20.90;99.90;;;;;;9861005;30;20212;-84
2021/10/03 12:53:54;;;;;;;3.40;3.17;;;21.00;99.90;;;;;;9910100;29;20243;-84
2021/10/03 13:04:57;;;;;;;3.90;3.60;;;21.20;99.90;;;;;;9912822;29;20305;-84
2021/10/03 13:22:17;;;;;;;3.63;3.00;;;21.30;99.90;;;;;;9930444;24;20242;-84
2021/10/03 13:27:19;;;;;;;3.80;3.50;;;21.30;99.90;;;;;;9873946;30;20731;-84
2021/10/03 13:32:22;;;;;;;3.90;3.60;;;21.20;99.90;;;;;;9871907;30;20230;-84
2021/10/03 13:37:25;;;;;;;4.27;3.87;;;21.10;99.90;;;;;;9862958;30;20257;-84
2021/10/03 13:42:27;;;;;;;3.93;3.70;;;21.10;99.90;;;;;;9837386;30;20204;-84
2021/10/03 14:15:08;;;;;;;3.80;3.60;;;20.80;99.90;;;;;;10181364;24;21140;-84
2021/10/03 14:20:11;;;;;;;4.50;4.20;;;20.70;99.90;;;;;;9877875;30;20699;-85
2021/10/03 14:25:13;;;;;;;5.17;4.67;;;20.70;99.90;;;;;;9861019;29;20595;-84
2021/10/03 14:30:17;;;;;;;4.33;4.03;;;20.60;99.90;;;;;;9875345;30;20211;-85
2021/10/03 14:35:19;;;;;;;4.43;4.03;;;20.60;99.90;;;;;;9859759;29;20227;-84
2021/10/03 14:40:22;;;;;;;4.00;3.70;;;20.50;99.90;;;;;;9876748;30;20203;-85
2021/10/03 15:06:33;;;;;;;4.90;4.50;;;20.20;99.90;;;;;;10593233;24;20241;-85
2021/10/03 15:11:35;;;;;;;4.40;4.03;;;20.20;99.90;;;;;;9870325;30;20232;-83
2021/10/03 15:16:38;;;;;;;5.40;4.97;;;20.10;99.90;;;;;;9891519;30;20350;-84
2021/10/03 15:21:41;;;;;;;6.17;5.57;;;20.10;99.90;;;;;;9858719;30;20309;-84
2021/10/03 15:26:43;;;;;;;5.40;5.00;;;20.00;99.90;;;;;;9862447;30;20227;-84
2021/10/03 15:31:45;;;;;;;7.10;6.53;;;20.00;99.90;;;;;;9852847;30;20250;-84
2021/10/03 15:36:49;;;;;;;8.00;7.30;;;19.90;99.90;;;;;;9869843;30;20238;-84
2021/10/03 15:41:51;;;;;;;8.90;8.10;;;19.90;99.90;;;;;;9850412;30;20239;-84
2021/10/03 15:46:53;;;;;;;7.80;7.20;;;19.90;99.90;;;;;;9889557;30;20227;-84
2021/10/03 15:51:57;;;;;;;13.40;11.37;;;19.90;99.90;;;;;;9900369;30;20294;-84
2021/10/03 16:31:33;;;;;;;9.13;6.60;;;19.50;99.90;;;;;;9936370;24;20365;-84
2021/10/03 16:36:37;;;;;;;7.17;6.57;;;19.40;99.90;;;;;;9900803;30;20238;-84
2021/10/03 16:41:39;;;;;;;9.00;8.10;;;19.40;99.90;;;;;;9887485;30;20218;-84
2021/10/03 16:46:44;;;;;;;8.07;7.47;;;19.30;99.90;;;;;;9900938;30;20226;-85
2021/10/03 16:51:47;;;;;;;7.43;6.70;;;19.10;99.90;;;;;;9901429;30;20217;-84
2021/10/03 16:56:49;;;;;;;8.20;7.53;;;19.10;99.90;;;;;;9877624;30;20235;-84
2021/10/03 17:01:52;;;;;;;8.43;7.67;;;19.00;99.90;;;;;;9856915;30;20691;-85
2021/10/03 17:06:55;;;;;;;9.73;8.93;;;18.90;99.90;;;;;;9848787;30;20231;-84
2021/10/03 17:11:57;;;;;;;8.00;7.40;;;18.80;99.90;;;;;;9845096;30;20215;-85
2021/10/03 17:17:02;;;;;;;8.67;7.97;;;18.80;99.90;;;;;;9880759;30;20264;-84
2021/10/03 17:22:05;;;;;;;8.83;8.13;;;18.70;99.90;;;;;;9887111;30;20272;-84
2021/10/03 17:27:07;;;;;;;8.90;8.10;;;18.60;99.90;;;;;;9904789;30;20776;-83
2021/10/03 17:32:11;;;;;;;9.80;9.00;;;18.60;99.90;;;;;;9903206;29;20217;-84
2021/10/03 17:37:16;;;;;;;8.40;7.80;;;18.50;99.90;;;;;;9887616;30;20246;-84
2021/10/03 17:42:18;;;;;;;9.33;8.53;;;18.50;99.90;;;;;;9898057;30;20215;-84
2021/10/03 17:47:21;;;;;;;11.30;10.20;;;18.40;99.90;;;;;;9865874;30;20670;-84
2021/10/03 17:52:23;;;;;;;10.43;9.50;;;18.50;99.90;;;;;;9860421;30;20314;-85
2021/10/03 17:57:26;;;;;;;9.80;8.90;;;18.50;99.90;;;;;;9907286;30;20254;-85
2021/10/03 18:02:31;;;;;;;8.90;8.17;;;18.40;99.90;;;;;;9872993;30;20214;-85
2021/10/03 18:07:36;;;;;;;11.30;10.20;;;18.40;99.90;;;;;;9858749;30;20203;-85
2021/10/03 18:12:41;;;;;;;11.10;8.30;;;18.40;99.90;;;;;;9881244;30;20215;-85
2021/10/03 18:17:52;;;;;;;9.90;9.00;;;18.40;99.90;;;;;;9855159;30;20239;-86
2021/10/03 18:22:55;;;;;;;10.10;9.10;;;18.30;99.90;;;;;;9860067;29;20246;-86
2021/10/03 18:27:57;;;;;;;10.50;9.60;;;18.30;99.90;;;;;;9862078;30;20223;-86
2021/10/03 18:33:03;;;;;;;9.93;9.17;;;18.30;99.90;;;;;;9866654;30;20293;-86
2021/10/03 18:38:12;;;;;;;12.53;11.43;;;18.30;99.90;;;;;;9860395;30;20303;-86
2021/10/03 18:43:22;;;;;;;11.57;10.67;;;18.30;99.90;;;;;;9869506;29;20787;-86
2021/10/03 18:48:30;;;;;;;7.60;6.90;;;18.30;99.90;;;;;;9872796;30;20882;-86
2021/10/03 18:53:33;;;;;;;6.20;5.80;;;18.30;99.90;;;;;;9864385;30;20237;-85
2021/10/03 18:58:35;;;;;;;6.07;5.67;;;18.30;99.90;;;;;;9857938;30;20219;-85
2021/10/03 19:03:39;;;;;;;6.00;5.50;;;18.20;99.90;;;;;;9870434;29;20698;-85
2021/10/03 19:09:38;;;;;;;5.53;5.03;;;18.20;99.90;;;;;;9885980;30;20218;-86
2021/10/03 19:21:12;;;;;;;3.20;3.00;;;18.10;99.90;;;;;;9817591;30;20276;-85
2021/10/03 19:26:15;;;;;;;3.67;3.37;;;18.10;99.90;;;;;;9870146;30;20238;-85
2021/10/03 19:31:18;;;;;;;3.20;3.03;;;18.10;99.90;;;;;;9870586;30;20222;-85
2021/10/03 19:36:21;;;;;;;3.13;2.93;;;18.10;99.90;;;;;;9872056;30;20296;-85
2021/10/03 20:00:24;;;;;;;4.57;4.27;;;18.00;99.90;;;;;;9689662;30;20221;-85
2021/10/03 20:05:27;;;;;;;5.23;4.73;;;17.90;99.90;;;;;;9872492;30;20238;-85
2021/10/03 20:10:29;;;;;;;3.43;3.23;;;17.90;99.90;;;;;;9887249;30;20280;-85
2021/10/03 20:15:32;;;;;;;3.50;3.30;;;17.80;99.90;;;;;;9871402;30;20326;-85
2021/10/03 20:20:35;;;;;;;3.10;2.90;;;17.70;99.90;;;;;;9871935;30;20214;-85
2021/10/03 20:25:37;;;;;;;2.90;2.70;;;17.70;99.90;;;;;;9871410;30;20237;-85
2021/10/03 20:30:42;;;;;;;2.90;2.80;;;17.60;99.90;;;;;;9884293;30;20233;-85
2021/10/03 20:35:44;;;;;;;2.33;2.23;;;17.60;99.90;;;;;;9877595;30;20613;-85
2021/10/03 20:40:47;;;;;;;2.73;2.37;;;17.50;99.90;;;;;;9869426;30;20237;-85
2021/10/03 20:45:51;;;;;;;2.00;1.90;;;17.50;99.90;;;;;;9874592;30;20223;-85
2021/10/03 20:50:53;;;;;;;2.37;2.27;;;17.40;99.90;;;;;;9871661;30;20214;-85
2021/10/03 20:55:55;;;;;;;2.30;2.20;;;17.30;99.90;;;;;;9871312;30;20619;-85
2021/10/03 21:01:00;;;;;;;2.60;2.50;;;17.20;99.90;;;;;;9889508;30;20250;-85
2021/10/03 21:06:03;;;;;;;2.00;1.90;;;17.20;99.90;;;;;;9876777;29;20230;-85
2021/10/03 21:11:05;;;;;;;2.30;2.17;;;17.20;99.90;;;;;;9866783;30;20211;-85
2021/10/03 21:16:10;;;;;;;2.90;2.70;;;17.20;99.90;;;;;;9880262;30;20246;-85
2021/10/03 21:21:14;;;;;;;2.60;2.40;;;17.20;99.90;;;;;;9907192;29;20257;-85
2021/10/03 21:26:17;;;;;;;2.70;2.50;;;17.20;99.90;;;;;;9906360;29;20266;-84
2021/10/03 21:31:21;;;;;;;2.20;2.10;;;17.20;99.90;;;;;;9878883;29;20217;-84
2021/10/03 21:36:25;;;;;;;2.33;2.13;;;17.20;99.90;;;;;;9894632;30;20226;-85
2021/10/03 21:41:30;;;;;;;2.10;2.00;;;17.20;99.90;;;;;;9862165;30;20218;-85
2021/10/03 21:46:37;;;;;;;2.10;2.00;;;17.20;99.90;;;;;;9878546;30;20227;-85
2021/10/03 21:51:39;;;;;;;2.73;2.00;;;17.20;99.90;;;;;;9868462;29;20265;-84
2021/10/03 21:56:45;;;;;;;1.90;1.80;;;17.20;99.90;;;;;;9880452;30;20617;-84
2021/10/03 22:01:51;;;;;;;1.90;1.80;;;17.20;99.90;;;;;;9879336;30;20219;-85
2021/10/03 22:06:54;;;;;;;2.10;2.00;;;17.20;99.90;;;;;;9880537;30;20227;-85
2021/10/03 22:11:56;;;;;;;2.00;1.90;;;17.10;99.90;;;;;;9900956;30;20238;-84
2021/10/03 22:17:01;;;;;;;1.77;1.67;;;17.10;99.90;;;;;;9903562;29;20258;-85
2021/10/03 22:22:07;;;;;;;1.57;1.47;;;17.10;99.90;;;;;;9871855;30;20294;-85
2021/10/03 22:27:09;;;;;;;1.93;1.70;;;17.10;99.90;;;;;;9912667;29;20695;-85
2021/10/03 22:32:13;;;;;;;1.70;1.60;;;17.10;99.90;;;;;;9894115;30;20218;-84
2021/10/03 22:37:15;;;;;;;1.93;1.83;;;17.20;99.90;;;;;;9896234;30;20234;-85
2021/10/03 22:42:17;;;;;;;2.20;2.10;;;17.20;99.90;;;;;;9878553;30;20680;-85
2021/10/03 22:47:21;;;;;;;1.70;1.60;;;17.20;99.90;;;;;;9892048;30;20313;-85
2021/10/03 22:52:23;;;;;;;2.70;1.70;;;17.20;99.90;;;;;;9865884;30;20215;-85
2021/10/03 22:57:25;;;;;;;2.07;1.87;;;17.20;99.90;;;;;;9906968;29;20238;-84
2021/10/03 23:02:28;;;;;;;1.77;1.67;;;17.30;99.90;;;;;;9877199;30;20305;-85
2021/10/03 23:07:31;;;;;;;1.90;1.80;;;17.30;99.90;;;;;;9876828;30;20676;-85
2021/10/03 23:12:33;;;;;;;1.83;1.73;;;17.30;99.90;;;;;;9928072;29;20302;-85
2021/10/03 23:17:37;;;;;;;2.50;1.93;;;17.30;99.90;;;;;;9893130;30;20237;-84
2021/10/03 23:22:41;;;;;;;2.30;2.20;;;17.30;99.90;;;;;;9891930;29;20591;-85
2021/10/03 23:27:44;;;;;;;2.00;1.90;;;17.30;99.90;;;;;;9881488;29;20580;-85
2021/10/03 23:32:47;;;;;;;1.90;1.80;;;17.30;99.90;;;;;;9912882;29;20278;-85
2021/10/03 23:37:49;;;;;;;2.17;1.97;;;17.40;99.90;;;;;;9876534;30;20388;-85
2021/10/03 23:42:52;;;;;;;1.90;1.80;;;17.40;99.90;;;;;;9876251;30;20231;-85
2021/10/03 23:47:55;;;;;;;2.00;1.90;;;17.30;99.90;;;;;;9875991;30;20211;-85
2021/10/03 23:52:59;;;;;;;1.77;1.70;;;17.20;99.90;;;;;;9904406;30;20249;-85
2021/10/03 23:58:01;;;;;;;2.00;1.90;;;17.10;99.90;;;;;;9876105;30;20288;-84
